Latest Weather Observations for Moruya Airport

IDN60901

Issued at 9:21 pm EDT Friday 13 December 2019 (issued every 10 minutes, with the page automatically refreshed every 10 minutes)

About weather observations | Map of Canberra area stations | Latest observations for Canberra area | Other Formats
Station Details ID: 069148 Name: MORUYA AIRPORT AWS Lat: -35.90 Lon: 150.14 Height: 4.0 m
Data from the previous 72 hours. | See also: Recent months at Moruya Airport
Date/Time
EDT
Temp
°C
App
Temp
°C
Dew
Point
°C
Rel
Hum
%
Delta-T
°C
Wind Press
QNH
hPa
Press
MSL
hPa
Rain since
9am
mm
Dir  Spd
km/h
Gust
km/h
Spd
kts
Gust
kts
13/09:00pm 15.2 15.8 12.0 81 1.7 CALM 0 0 0 0 1014.3 1014.2 0.4
13/08:30pm 15.5 14.9 11.7 78 2.1 NNW 6 7 3 4 1014.2 1014.1 0.4
13/08:00pm 16.0 15.7 11.4 74 2.5 NW 4 7 2 4 1014.1 1014.0 0.4
13/07:30pm 16.3 15.2 10.8 70 2.9 N 7 9 4 5 1013.9 1013.8 0.4
13/07:00pm 16.5 15.0 10.6 68 3.1 NE 9 11 5 6 1013.7 1013.6 0.4
13/06:30pm 16.6 15.4 10.2 66 3.4 NE 7 11 4 6 1013.6 1013.5 0.4
13/06:00pm 16.7 15.1 10.1 65 3.5 NE 9 13 5 7 1013.6 1013.5 0.4
13/05:30pm 16.7 14.7 10.1 65 3.5 ENE 11 15 6 8 1013.8 1013.7 0.4
13/05:00pm 16.9 14.6 10.5 66 3.4 ENE 13 17 7 9 1013.8 1013.7 0.4
13/04:30pm 17.0 14.0 10.8 67 3.3 E 17 20 9 11 1013.9 1013.8 0.4
13/04:00pm 16.8 14.1 10.4 66 3.4 ENE 15 20 8 11 1014.2 1014.1 0.4
13/03:30pm 16.9 13.9 10.5 66 3.4 ENE 17 20 9 11 1014.3 1014.2 0.4
13/03:00pm 16.8 13.9 11.1 69 3.1 ENE 17 20 9 11 1014.2 1014.1 0.4
13/02:30pm 16.8 14.1 11.7 72 2.8 ENE 17 22 9 12 1014.4 1014.3 0.4
13/02:00pm 16.7 14.1 12.0 74 2.6 NE 17 24 9 13 1014.5 1014.4 0.4
13/01:30pm 16.4 14.7 12.4 77 2.2 NE 13 17 7 9 1015.1 1015.0 0.4
13/01:12pm 15.8 15.6 12.9 83 1.6 ENE 6 7 3 4 1015.3 1015.2 0.4
13/01:00pm 15.7 14.9 12.8 83 1.6 E 9 11 5 6 1015.4 1015.3 0.4
13/12:30pm 15.6 14.7 12.5 82 1.7 ENE 9 11 5 6 1015.9 1015.8 0.4
13/12:16pm 15.6 15.0 12.4 81 1.8 NE 7 11 4 6 1016.0 1015.9 0.4
13/12:00pm 15.8 15.6 13.1 84 1.5 E 6 9 3 5 1016.1 1016.0 0.4
13/11:30am 15.3 15.6 13.3 88 1.1 S 4 7 2 4 1016.3 1016.2 0.4
13/11:00am 14.5 14.3 12.9 90 0.9 SSE 6 9 3 5 1016.5 1016.4 0.4
13/10:54am 14.4 14.1 12.8 90 0.9 SE 6 7 3 4 1016.5 1016.4 0.4
13/10:30am 14.1 14.2 12.7 91 0.8 SE 4 7 2 4 1016.5 1016.4 0.4
13/10:00am 14.3 14.9 13.0 92 0.7 S 2 6 1 3 1016.4 1016.3 0.4
13/09:45am 14.1 14.2 12.8 92 0.7 S 4 7 2 4 1016.5 1016.4 0.4
13/09:39am 13.9 14.3 12.6 92 0.7 WSW 2 7 1 4 1016.5 1016.4 0.4
13/09:33am 14.0 14.9 12.9 93 0.6 CALM 0 0 0 0 1016.5 1016.4 0.4
13/09:30am 14.1 15.0 13.0 93 0.6 CALM 0 0 0 0 1016.5 1016.4 0.4
13/09:14am 14.0 14.5 12.9 93 0.6 W 2 6 1 3 1016.6 1016.5 0.2
13/09:00am 13.9 13.4 12.8 93 0.6 SW 7 9 4 5 1016.7 1016.6 6.0
13/08:30am 13.9 13.1 13.0 94 0.5 SSW 9 13 5 7 1016.6 1016.5 6.0
13/08:00am 13.8 13.0 12.9 94 0.5 S 9 13 5 7 1016.4 1016.3 6.0
13/07:46am 13.9 13.1 13.0 94 0.5 S 9 13 5 7 1016.2 1016.1 5.8
13/07:30am 13.8 13.0 12.9 94 0.5 S 9 15 5 8 1016.2 1016.1 5.8
13/07:18am 13.9 13.1 13.0 94 0.5 SSW 9 13 5 7 1016.1 1016.0 5.6
13/07:00am 13.9 13.7 13.0 94 0.5 SSW 6 9 3 5 1016.0 1015.9 5.6
13/06:42am 13.9 13.5 13.0 94 0.5 SSW 7 9 4 5 1015.8 1015.7 5.6
13/06:41am 13.9 13.5 13.0 94 0.5 SSW 7 9 4 5 1015.8 1015.7 5.4
13/06:30am 13.9 13.5 13.0 94 0.5 SSW 7 11 4 6 1015.7 1015.6 5.4
13/06:09am 14.0 14.2 13.1 94 0.5 SE 4 7 2 4 1015.8 1015.7 5.0
13/06:02am 14.0 13.8 13.1 94 0.5 SE 6 7 3 4 1015.8 1015.7 4.8
13/06:00am 14.0 13.8 13.1 94 0.5 SE 6 7 3 4 1015.8 1015.7 4.8
13/05:30am 14.2 14.1 13.2 94 0.6 SE 6 7 3 4 1015.7 1015.6 4.2
13/05:00am 14.4 14.3 13.4 94 0.6 W 6 11 3 6 1015.7 1015.6 2.8
13/04:30am 14.4 14.1 13.3 93 0.6 WSW 7 9 4 5 1015.6 1015.5 2.4
13/04:04am 14.5 15.1 13.2 92 0.7 SSE 2 7 1 4 1015.5 1015.4 1.8
13/04:00am 14.5 14.4 13.2 92 0.7 SSE 6 11 3 6 1015.6 1015.5 1.8
13/03:30am 14.6 14.3 13.3 92 0.7 SSW 7 9 4 5 1015.8 1015.7 1.6
13/03:25am 14.6 14.3 13.3 92 0.7 SSW 7 11 4 6 1015.8 1015.7 1.6
13/03:24am 14.5 14.2 13.2 92 0.7 S 7 11 4 6 1015.8 1015.7 1.6
13/03:00am 14.7 14.1 13.4 92 0.7 S 9 17 5 9 1015.9 1015.8 1.0
13/02:59am 14.6 14.0 13.5 93 0.6 S 9 17 5 9 1015.9 1015.8 1.0
13/02:30am 14.6 14.4 13.5 93 0.6 NNW 7 13 4 7 1016.1 1016.0 1.0
13/02:00am 14.6 13.7 13.6 94 0.6 NNW 11 15 6 8 1016.4 1016.3 1.0
13/01:45am 14.6 13.3 13.6 94 0.6 NNW 13 17 7 9 1016.5 1016.4 1.0
13/01:30am 14.7 13.8 13.7 94 0.6 NNW 11 15 6 8 1016.7 1016.6 0.8
13/01:00am 14.8 13.9 13.7 93 0.6 NNW 11 13 6 7 1017.0 1016.9 0.2
13/12:30am 14.9 14.3 13.6 92 0.7 NNW 9 13 5 7 1017.5 1017.4 0.0
13/12:00am 15.1 14.5 13.5 90 0.9 NNW 9 15 5 8 1017.6 1017.5 0.0
 
Date/Time
EDT
Temp
°C
App
Temp
°C
Dew
Point
°C
Rel
Hum
%
Delta-T
°C
Wind Press
QNH
hPa
Press
MSL
hPa
Rain since
9am
mm
Dir  Spd
km/h
Gust
km/h
Spd
kts
Gust
kts
12/11:30pm 16.1 15.7 13.0 82 1.7 WNW 7 11 4 6 1017.8 1017.7 0.0
12/11:00pm 16.9 15.6 12.6 76 2.4 SSW 11 17 6 9 1017.6 1017.5 0.0
12/10:30pm 17.7 15.0 11.7 68 3.3 E 17 22 9 12 1017.5 1017.4 0.0
12/10:00pm 17.9 15.7 12.1 69 3.2 E 15 20 8 11 1017.4 1017.3 0.0
12/09:30pm 17.7 15.0 11.7 68 3.3 E 17 22 9 12 1017.0 1016.9 0.0
12/09:00pm 17.7 16.0 12.6 72 2.8 E 13 20 7 11 1016.7 1016.6 0.0
12/08:30pm 17.7 15.2 12.4 71 2.9 ESE 17 22 9 12 1016.4 1016.3 0.0
12/08:00pm 17.9 15.5 12.6 71 2.9 ESE 17 24 9 13 1016.2 1016.1 0.0
12/07:30pm 17.9 15.1 12.6 71 2.9 ESE 19 26 10 14 1015.9 1015.8 0.0
12/07:00pm 18.1 15.2 12.3 69 3.2 ESE 19 26 10 14 1015.3 1015.2 0.0
12/06:30pm 18.3 15.6 11.6 65 3.7 ESE 17 24 9 13 1014.9 1014.8 0.0
12/06:00pm 18.5 15.4 11.6 64 3.8 ESE 19 24 10 13 1014.3 1014.2 0.0
12/05:30pm 18.9 16.0 12.4 66 3.6 ESE 19 28 10 15 1014.2 1014.1 0.0
12/05:00pm 19.0 15.8 12.0 64 3.9 SE 20 28 11 15 1014.3 1014.2 0.0
12/04:30pm 19.8 16.5 11.6 59 4.5 ESE 20 28 11 15 1014.2 1014.1 0.0
12/04:00pm 19.9 16.3 10.6 55 5.0 SE 20 30 11 16 1014.3 1014.2 0.0
12/03:30pm 20.2 16.2 10.3 53 5.3 ESE 22 30 12 16 1014.0 1013.9 0.0
12/03:00pm 20.6 16.8 11.0 54 5.3 ESE 22 32 12 17 1014.0 1013.9 0.0
12/02:30pm 21.0 17.6 11.3 54 5.4 ESE 20 28 11 15 1013.8 1013.7 0.0
12/02:00pm 20.6 17.1 11.0 54 5.3 ESE 20 28 11 15 1013.8 1013.7 0.0
12/01:30pm 20.1 16.3 11.3 57 4.8 ESE 22 28 12 15 1013.7 1013.6 0.0
12/01:00pm 20.7 16.7 10.5 52 5.5 ESE 22 30 12 16 1013.9 1013.8 0.0
12/12:30pm 20.3 16.7 10.4 53 5.4 ESE 20 26 11 14 1014.2 1014.1 0.0
12/12:00pm 20.1 16.3 9.9 52 5.5 ESE 20 26 11 14 1014.3 1014.2 0.0
12/11:30am 19.8 16.2 9.7 52 5.4 ESE 19 24 10 13 1014.4 1014.3 0.0
12/11:00am 19.8 16.3 10.2 54 5.2 ESE 19 24 10 13 1014.5 1014.4 0.0
12/10:30am 19.4 16.4 11.9 62 4.2 SE 19 24 10 13 1014.6 1014.5 0.0
12/10:00am 19.3 16.1 11.1 59 4.5 ESE 19 26 10 14 1014.7 1014.6 0.0
12/09:30am 19.4 16.3 10.4 56 4.8 SE 17 24 9 13 1014.7 1014.6 0.0
12/09:00am 18.0 15.8 12.0 68 3.3 SE 15 20 8 11 1014.9 1014.8 0.2
12/08:30am 17.8 16.8 12.3 70 3.0 SSE 9 11 5 6 1014.9 1014.8 0.2
12/08:00am 17.5 17.0 12.0 70 3.0 SSW 6 11 3 6 1014.7 1014.6 0.2
12/07:30am 17.2 16.6 12.3 73 2.7 SSW 7 9 4 5 1014.6 1014.5 0.2
12/07:00am 16.6 17.3 12.2 75 2.4 CALM 0 6 0 3 1014.5 1014.4 0.2
12/06:30am 15.8 16.6 12.5 81 1.8 CALM 0 0 0 0 1014.5 1014.4 0.2
12/06:00am 15.3 16.1 12.4 83 1.6 CALM 0 6 0 3 1014.5 1014.4 0.2
12/05:30am 15.2 15.6 12.5 84 1.5 W 2 7 1 4 1014.4 1014.3 0.2
12/05:00am 15.4 16.2 12.5 83 1.6 CALM 0 0 0 0 1014.5 1014.4 0.2
12/04:30am 15.5 14.9 12.4 82 1.7 SW 7 9 4 5 1014.6 1014.5 0.2
12/04:00am 15.6 15.1 12.7 83 1.6 SW 7 9 4 5 1014.6 1014.5 0.2
12/03:30am 15.7 14.8 12.6 82 1.7 SSW 9 13 5 7 1014.7 1014.6 0.2
12/03:00am 15.6 14.4 12.7 83 1.6 SSW 11 15 6 8 1014.7 1014.6 0.2
12/02:30am 15.4 14.6 12.9 85 1.4 SSW 9 13 5 7 1014.8 1014.7 0.2
12/02:00am 15.3 14.4 12.6 84 1.5 SW 9 11 5 6 1015.0 1014.9 0.2
12/01:30am 15.1 14.2 12.6 85 1.4 SW 9 11 5 6 1015.3 1015.2 0.2
12/01:00am 15.5 14.2 12.6 83 1.6 SW 11 13 6 7 1015.7 1015.6 0.0
12/12:30am 15.6 15.1 12.7 83 1.6 W 7 9 4 5 1016.0 1015.9 0.0
12/12:00am 15.6 15.2 12.9 84 1.5 W 7 9 4 5 1016.4 1016.3 0.0
 
Date/Time
EDT
Temp
°C
App
Temp
°C
Dew
Point
°C
Rel
Hum
%
Delta-T
°C
Wind Press
QNH
hPa
Press
MSL
hPa
Rain since
9am
mm
Dir  Spd
km/h
Gust
km/h
Spd
kts
Gust
kts
11/11:30pm 15.5 15.1 13.0 85 1.4 W 7 9 4 5 1016.6 1016.5 0.0
11/11:00pm 15.6 15.2 13.1 85 1.4 WSW 7 13 4 7 1016.8 1016.7 0.0
11/10:30pm 15.8 15.8 13.5 86 1.3 NW 6 7 3 4 1017.0 1016.9 0.0
11/10:00pm 15.9 15.3 13.4 85 1.4 SW 9 13 5 7 1016.9 1016.8 0.0
11/09:30pm 16.2 15.6 13.5 84 1.5 SSW 9 13 5 7 1016.4 1016.3 0.0
11/09:00pm 16.8 15.6 12.7 77 2.3 SSW 11 17 6 9 1016.0 1015.9 0.0
11/08:30pm 17.9 16.1 12.1 69 3.2 S 13 20 7 11 1015.6 1015.5 0.0
11/08:00pm 18.0 15.6 11.3 65 3.6 SSE 15 20 8 11 1015.4 1015.3 0.0
11/07:30pm 18.3 16.0 11.6 65 3.7 SSE 15 20 8 11 1015.1 1015.0 0.0
11/07:00pm 18.3 15.8 11.1 63 3.9 SSE 15 20 8 11 1015.0 1014.9 0.0
11/06:30pm 18.8 16.0 11.4 62 4.0 SSE 17 24 9 13 1014.4 1014.3 0.0
11/06:00pm 18.7 15.9 11.3 62 4.0 SSE 17 22 9 12 1014.3 1014.2 0.0
11/05:30pm 18.8 16.0 11.4 62 4.0 SSE 17 22 9 12 1014.2 1014.1 0.0
11/05:00pm 18.9 16.1 11.2 61 4.2 SSE 17 20 9 11 1014.4 1014.3 0.0
11/04:30pm 19.1 16.7 11.4 61 4.2 SE 15 22 8 12 1014.4 1014.3 0.0
11/04:00pm 19.1 16.3 11.4 61 4.2 SE 17 22 9 12 1014.6 1014.5 0.0
11/03:30pm 19.2 16.4 11.3 60 4.3 SE 17 28 9 15 1014.8 1014.7 0.0
11/03:00pm 19.6 16.4 11.1 58 4.6 SE 19 26 10 14 1014.8 1014.7 0.0
11/02:30pm 19.4 16.2 11.2 59 4.5 ESE 19 24 10 13 1014.8 1014.7 0.0
11/02:00pm 20.1 17.2 11.1 56 4.9 ESE 17 22 9 12 1014.9 1014.8 0.0
11/01:30pm 20.5 17.7 11.2 55 5.1 ESE 17 24 9 13 1015.1 1015.0 0.0
11/01:00pm 20.4 17.0 10.5 53 5.4 ESE 19 24 10 13 1015.6 1015.5 0.0
11/12:30pm 19.7 16.2 10.1 54 5.2 SE 19 26 10 14 1015.9 1015.8 0.0
11/12:00pm 19.8 17.0 11.3 58 4.7 SE 17 22 9 12 1016.1 1016.0 0.0
11/11:30am 19.5 16.5 12.0 62 4.2 SSE 19 24 10 13 1016.4 1016.3 0.0
11/11:00am 18.5 15.5 12.0 66 3.6 SE 19 26 10 14 1016.6 1016.5 0.0
11/10:30am 18.4 15.8 11.9 66 3.6 SSE 17 24 9 13 1016.8 1016.7 0.0
11/10:00am 18.5 16.4 11.3 63 3.9 SE 13 22 7 12 1017.0 1016.9 0.0
11/09:30am 18.5 16.5 10.1 58 4.5 S 11 15 6 8 1017.1 1017.0 0.0
11/09:00am 18.5 16.0 9.8 57 4.6 SSW 13 20 7 11 1017.2 1017.1 0.0
11/08:30am 18.4 16.8 10.3 59 4.3 SSW 9 15 5 8 1017.3 1017.2 0.0
11/08:00am 17.9 14.6 9.5 58 4.4 SSW 17 20 9 11 1017.4 1017.3 0.0
11/07:30am 17.3 14.8 9.7 61 4.0 SSW 13 19 7 10 1017.2 1017.1 0.0
11/07:00am 16.9 15.3 10.1 64 3.6 SSW 9 15 5 8 1017.1 1017.0 0.0
11/06:30am 16.5 14.8 9.9 65 3.5 SSW 9 11 5 6 1017.0 1016.9 0.0
11/06:00am 16.4 14.7 10.0 66 3.4 SSW 9 13 5 7 1016.8 1016.7 0.0
11/05:30am 16.2 14.2 10.1 67 3.2 SW 11 15 6 8 1016.8 1016.7 0.0
11/05:00am 16.2 14.6 10.3 68 3.1 WSW 9 15 5 8 1016.8 1016.7 0.0
11/04:30am 16.2 14.6 10.3 68 3.1 SW 9 15 5 8 1016.8 1016.7 0.0
11/04:00am 16.4 14.6 10.7 69 3.0 SW 11 15 6 8 1016.8 1016.7 0.0
11/03:30am 16.6 14.4 10.9 69 3.1 SW 13 20 7 11 1017.1 1017.0 0.0
11/03:00am 16.6 14.8 10.9 69 3.0 SSW 11 15 6 8 1017.4 1017.3 0.0
11/02:30am 16.8 14.6 10.9 68 3.2 SSW 13 17 7 9 1017.7 1017.6 0.0
11/02:00am 16.8 14.9 10.6 67 3.3 SSW 11 15 6 8 1018.0 1017.9 0.0
11/01:30am 16.9 14.8 11.0 68 3.2 SSW 13 17 7 9 1018.3 1018.2 0.0
11/01:00am 16.8 14.6 10.9 68 3.2 SSW 13 19 7 10 1018.5 1018.4 0.0
11/12:30am 16.7 15.0 11.2 70 3.0 SSW 11 15 6 8 1018.7 1018.6 0.0
11/12:00am 16.4 14.3 11.1 71 2.8 SSW 13 17 7 9 1019.1 1019.0 0.0
 
Date/Time
EDT
Temp
°C
App
Temp
°C
Dew
Point
°C
Rel
Hum
%
Delta-T
°C
Wind Press
QNH
hPa
Press
MSL
hPa
Rain since
9am
mm
Dir  Spd
km/h
Gust
km/h
Spd
kts
Gust
kts
10/11:30pm 16.8 13.6 11.1 69 3.1 S 19 24 10 13 1019.3 1019.2 0.0
10/11:00pm 17.2 13.7 11.0 67 3.3 S 20 24 11 13 1019.2 1019.1 0.0
10/10:30pm 17.3 13.5 11.1 67 3.3 S 22 30 12 16 1019.2 1019.1 0.0
10/10:00pm 17.3 13.6 11.6 69 3.1 S 22 30 12 16 1019.2 1019.1 0.0
10/09:30pm 17.7 13.4 12.2 70 3.0 SSE 26 35 14 19 1018.9 1018.8 0.0

Latest Capital City Observations: Canberra | Sydney | Melbourne | Brisbane | Adelaide | Perth | Hobart | Darwin

Other formats

Comma delimited format used in spreadsheet applications
http://www.bom.gov.au/fwo/IDN60903/IDN60903.95937.axf

JavaScript Object Notation format (JSON) in row-major order
http://www.bom.gov.au/fwo/IDN60903/IDN60903.95937.json

Data quality

Most of these data are generated automatically and are frequently updated. Quality checks on data are not normally performed. It is possible for incorrect values to appear. Refer to information at About Latest Weather Observations and please check the disclaimer before using these data.